Terminal Aerodrome Forecast
Issued by NWS

Home | Current Version | Previous Version | Text Only | Print | Product List | Glossary On
Versions: 1 2 3 4 5 6 7 8 9 10 11 12 13 14 15 16 17 18
000
FTUS43 KOAX 272334
TAFSNY
TAF
KSNY 272334Z 2800/2824 35008KT P6SM -RA OVC050
      TEMPO 2800/2802 4SM -RA OVC030
     FM280300 32008KT P6SM BKN090
     FM280600 27009KT P6SM SCT200=

USA.gov is the U.S. government's official web portal to all federal, state and local government web resources and services.